createdAt,value
2022-12-03T00:03:21.536Z,19.86
2022-12-03T00:09:46.121Z,19.78
2022-12-03T00:16:10.761Z,19.71
2022-12-03T00:22:35.157Z,19.64
2022-12-03T00:28:59.448Z,19.57
2022-12-03T00:35:23.871Z,19.50
2022-12-03T00:41:48.220Z,19.44
2022-12-03T00:48:12.619Z,19.37
2022-12-03T00:54:36.924Z,19.31
2022-12-03T01:01:01.387Z,19.25
2022-12-03T01:07:25.931Z,19.18
2022-12-03T01:13:50.587Z,19.11
2022-12-03T01:20:15.964Z,19.05
2022-12-03T01:26:33.382Z,18.98
2022-12-03T01:32:57.798Z,18.93
2022-12-03T01:39:22.225Z,18.87
2022-12-03T01:45:46.677Z,18.80
2022-12-03T01:52:11.047Z,18.75
2022-12-03T01:58:35.417Z,18.69
2022-12-03T02:04:59.685Z,18.63
2022-12-03T02:11:24.053Z,18.57
2022-12-03T02:17:48.447Z,18.51
2022-12-03T02:24:21.580Z,18.45
2022-12-03T02:30:46.175Z,18.41
2022-12-03T02:37:10.705Z,18.35
2022-12-03T02:43:35.111Z,18.30
2022-12-03T02:49:59.531Z,18.26
2022-12-03T02:56:23.932Z,18.22
2022-12-03T03:02:48.359Z,18.18
2022-12-03T03:09:12.649Z,18.13
2022-12-03T03:15:37.059Z,18.09
2022-12-03T03:22:01.472Z,18.04
2022-12-03T03:28:25.784Z,18.00
2022-12-03T03:34:50.187Z,17.96
2022-12-03T03:41:13.578Z,17.93
2022-12-03T03:47:28.194Z,17.89
2022-12-03T03:53:52.920Z,17.85
2022-12-03T04:00:17.240Z,17.81
2022-12-03T04:06:41.630Z,17.77
2022-12-03T04:13:17.992Z,17.74
2022-12-03T04:19:42.334Z,17.70
2022-12-03T04:26:05.117Z,17.67
2022-12-03T04:32:28.023Z,17.63
2022-12-03T04:38:52.377Z,17.59
2022-12-03T04:45:16.689Z,17.55
2022-12-03T04:51:41.022Z,17.52
2022-12-03T04:58:05.429Z,17.49
2022-12-03T05:04:29.707Z,17.46
2022-12-03T05:10:37.092Z,17.42
2022-12-03T05:16:44.589Z,17.40
2022-12-03T05:23:09.117Z,17.39
2022-12-03T05:29:33.492Z,17.43
2022-12-03T05:35:57.841Z,17.52
2022-12-03T05:42:21.266Z,17.67
2022-12-03T05:48:45.820Z,17.82
2022-12-03T05:55:10.137Z,17.98
2022-12-03T06:01:34.428Z,18.13
2022-12-03T06:07:58.912Z,18.29
2022-12-03T06:14:23.464Z,18.44
2022-12-03T06:20:48.070Z,18.60
2022-12-03T06:27:12.400Z,18.74
2022-12-03T06:33:36.758Z,18.89
2022-12-03T06:39:59.815Z,19.01
2022-12-03T06:46:24.237Z,19.12
2022-12-03T06:52:48.598Z,19.26
2022-12-03T06:59:13.011Z,19.37
2022-12-03T07:05:37.320Z,19.47
2022-12-03T07:12:01.667Z,19.58
2022-12-03T07:18:26.365Z,19.67
2022-12-03T07:24:50.851Z,19.79
2022-12-03T07:31:15.730Z,19.86
2022-12-03T07:37:40.206Z,19.94
2022-12-03T07:44:07.838Z,20.03
2022-12-03T07:50:36.923Z,20.14
2022-12-03T07:57:01.969Z,20.23
2022-12-03T08:03:26.577Z,20.30
2022-12-03T08:09:41.992Z,20.35
2022-12-03T08:16:15.341Z,20.40
2022-12-03T08:22:33.778Z,20.45
2022-12-03T08:28:58.181Z,20.46
2022-12-03T08:35:22.544Z,20.43
2022-12-03T08:41:54.265Z,20.41
2022-12-03T08:48:21.681Z,20.38
2022-12-03T08:54:48.803Z,20.39
2022-12-03T09:01:16.291Z,20.40
2022-12-03T09:07:40.876Z,20.41
2022-12-03T09:14:05.426Z,20.43
2022-12-03T09:20:29.727Z,20.46
2022-12-03T09:26:54.406Z,20.47
2022-12-03T09:33:18.780Z,20.47
2022-12-03T09:39:43.098Z,20.49
2022-12-03T09:46:07.818Z,20.55
2022-12-03T09:52:32.172Z,20.58
2022-12-03T09:58:56.589Z,20.61
2022-12-03T10:05:20.985Z,20.64
2022-12-03T10:11:45.307Z,20.66
2022-12-03T10:18:09.717Z,20.67
2022-12-03T10:24:32.295Z,20.69
2022-12-03T10:30:59.681Z,20.72
2022-12-03T10:37:24.185Z,20.76
2022-12-03T10:44:00.500Z,20.78
2022-12-03T10:50:25.063Z,20.80
2022-12-03T10:56:50.433Z,20.82
2022-12-03T11:03:20.710Z,20.84
2022-12-03T11:09:45.156Z,20.85
2022-12-03T11:16:24.519Z,20.88
2022-12-03T11:23:07.291Z,20.91
2022-12-03T11:29:34.751Z,21.01
2022-12-03T11:36:04.880Z,21.06
2022-12-03T11:42:29.348Z,21.05
2022-12-03T11:48:59.505Z,21.07
2022-12-03T11:55:23.905Z,21.03
2022-12-03T12:01:57.273Z,21.02
2022-12-03T12:08:29.181Z,21.05
2022-12-03T12:14:53.506Z,21.11
2022-12-03T12:21:23.820Z,21.12
2022-12-03T12:27:51.171Z,21.11
2022-12-03T12:34:07.740Z,21.10
2022-12-03T12:40:32.147Z,21.10
2022-12-03T12:46:48.987Z,21.16
2022-12-03T12:53:21.804Z,21.21
2022-12-03T12:59:52.123Z,21.25
2022-12-03T13:06:19.385Z,21.30
2022-12-03T13:12:43.768Z,21.34
2022-12-03T13:19:13.820Z,21.33
2022-12-03T13:32:31.356Z,21.36
2022-12-03T13:38:55.638Z,21.40
2022-12-03T13:45:20.030Z,21.40
2022-12-03T13:51:42.539Z,21.42
2022-12-03T13:58:07.017Z,21.47
2022-12-03T14:04:31.426Z,21.47
2022-12-03T14:11:00.435Z,21.47
2022-12-03T14:17:25.273Z,21.47
2022-12-03T14:23:49.627Z,21.49
2022-12-03T14:30:14.017Z,21.50
2022-12-03T14:36:38.295Z,21.53
2022-12-03T14:43:02.844Z,21.53
2022-12-03T14:49:27.148Z,21.56
2022-12-03T14:55:51.416Z,21.59
2022-12-03T15:02:15.857Z,21.60
2022-12-03T15:08:40.508Z,21.59
2022-12-03T15:15:05.001Z,21.56
2022-12-03T15:21:29.285Z,21.53
2022-12-03T15:26:53.732Z,21.51
2022-12-03T15:31:59.550Z,21.51
2022-12-03T15:37:02.885Z,21.52
2022-12-03T15:42:06.094Z,21.53
2022-12-03T15:47:09.336Z,21.54
2022-12-03T15:52:12.643Z,21.53
2022-12-03T15:57:16.113Z,21.53
2022-12-03T16:02:19.618Z,21.52
2022-12-03T16:07:22.969Z,21.51
2022-12-03T16:12:26.220Z,21.49
2022-12-03T16:17:29.624Z,21.51
2022-12-03T16:22:32.876Z,21.52
2022-12-03T16:27:38.163Z,21.56
2022-12-03T16:32:41.988Z,21.58
2022-12-03T16:37:45.253Z,21.63
2022-12-03T16:42:48.493Z,21.68
2022-12-03T16:47:51.787Z,21.72
2022-12-03T16:52:55.149Z,21.72
2022-12-03T16:57:58.465Z,21.73
2022-12-03T17:03:01.815Z,21.73
2022-12-03T17:08:05.213Z,21.75
2022-12-03T17:13:10.510Z,21.79
2022-12-03T17:18:14.208Z,21.82
2022-12-03T17:23:17.976Z,21.83
2022-12-03T17:28:21.297Z,21.85
2022-12-03T17:33:24.554Z,21.84
2022-12-03T17:38:28.035Z,21.87
2022-12-03T17:43:31.346Z,21.96
2022-12-03T17:48:35.413Z,22.05
2022-12-03T17:53:38.697Z,22.13
2022-12-03T17:58:42.040Z,22.19
2022-12-03T18:03:45.486Z,22.26
2022-12-03T18:08:48.823Z,22.32
2022-12-03T18:13:52.164Z,22.37
2022-12-03T18:18:57.653Z,22.42
2022-12-03T18:24:04.004Z,22.46
2022-12-03T18:29:07.332Z,22.48
2022-12-03T18:34:10.618Z,22.50
2022-12-03T18:39:30.325Z,22.53
2022-12-03T18:44:34.238Z,22.57
2022-12-03T18:49:37.590Z,22.60
2022-12-03T18:54:41.042Z,22.58
2022-12-03T18:59:44.431Z,22.56
2022-12-03T19:04:48.322Z,22.58
2022-12-03T19:09:51.969Z,22.63
2022-12-03T19:14:55.575Z,22.68
2022-12-03T19:19:58.962Z,22.71
2022-12-03T19:25:03.238Z,22.74
2022-12-03T19:30:07.522Z,22.77
2022-12-03T19:35:11.601Z,22.78
2022-12-03T19:40:15.788Z,22.82
2022-12-03T19:45:19.204Z,22.87
2022-12-03T19:50:23.705Z,22.91
2022-12-03T19:55:27.318Z,22.95
2022-12-03T20:00:30.681Z,22.95
2022-12-03T20:05:38.424Z,22.94
2022-12-03T20:10:41.897Z,22.95
2022-12-03T20:15:45.233Z,23.00
2022-12-03T20:20:48.564Z,23.03
2022-12-03T20:25:51.968Z,23.04
2022-12-03T20:31:05.089Z,23.06
2022-12-03T20:36:09.832Z,23.08
2022-12-03T20:41:15.890Z,23.09
2022-12-03T20:46:26.010Z,23.11
2022-12-03T20:51:31.115Z,23.12
2022-12-03T20:56:39.490Z,23.14
2022-12-03T21:01:44.316Z,23.15
2022-12-03T21:06:47.793Z,23.17
2022-12-03T21:11:51.251Z,23.17
2022-12-03T21:17:11.957Z,23.14
2022-12-03T21:22:15.445Z,23.02
2022-12-03T21:27:21.906Z,22.87
2022-12-03T21:32:25.568Z,22.70
2022-12-03T21:37:28.970Z,22.55
2022-12-03T21:42:35.629Z,22.41
2022-12-03T21:47:41.282Z,22.28
2022-12-03T21:52:44.762Z,22.17
2022-12-03T21:57:48.197Z,22.06
2022-12-03T22:02:52.668Z,21.97
2022-12-03T22:07:56.309Z,21.87
2022-12-03T22:13:00.363Z,21.79
2022-12-03T22:18:04.505Z,21.70
2022-12-03T22:23:07.935Z,21.62
2022-12-03T22:28:11.279Z,21.54
2022-12-03T22:33:14.611Z,21.46
2022-12-03T22:38:17.977Z,21.39
2022-12-03T22:43:22.277Z,21.30
2022-12-03T22:48:25.666Z,21.23
2022-12-03T22:53:29.070Z,21.15
2022-12-03T22:58:32.936Z,21.08
2022-12-03T23:03:37.511Z,21.02
2022-12-03T23:08:40.996Z,20.97
2022-12-03T23:13:44.860Z,20.90
2022-12-03T23:18:48.819Z,20.82
2022-12-03T23:23:52.282Z,20.74
2022-12-03T23:28:56.388Z,20.66
2022-12-03T23:34:00.449Z,20.60
2022-12-03T23:39:03.977Z,20.52
2022-12-03T23:44:07.354Z,20.45
2022-12-03T23:49:10.731Z,20.37
2022-12-03T23:54:14.241Z,20.29
2022-12-03T23:59:17.593Z,20.21
